Kitty C — 2EIQ6 — position and weather

sailwx.info

Track history (hours):
 
Tides and Currents Weather Stations Pressure Air Temp Water Temp Dewpoint Dewpoint Depression Visibility Wind Speed Wind Dir Waves Ship Positions

Kitty C

Last reported at 2017-Aug-14 16:33 UTC. Time now 2017-Aug-16 21:47 UTC.
Position N 47°27' W 006°34'.

Length 106 m; draft 6.8 m.

Type: Cargo ship. MMSI: 235085464.

Date/timePositionNaut miles runAvg speedWind from/ knotsBaromVisibWave heightAir tempDewpointWater temp
2017-Aug-14 16:33N 47°27' W 006°34'4810.1
2017-Aug-14 11:48N 48°13' W 006°11'50 9.0
2017-Aug-14 06:16N 48°57' W 005°36'3 8.8
2017-Aug-14 05:59N 48°58' W 005°33'12 9.3
2017-Aug-14 04:38N 49°05' W 005°17'1 9.9
2017-Aug-14 04:30N 49°06' W 005°15'710.4
2017-Aug-14 03:50N 49°09' W 005°06'2010.8
2017-Aug-14 01:58N 49°19' W 004°39'510.7
2017-Aug-14 01:29N 49°22' W 004°33'23 9.8
2017-Aug-13 23:05N 49°34' W 004°02'1 8.9
2017-Aug-13 23:00N 49°35' W 004°01'5 8.7
2017-Aug-13 22:29N 49°37' W 003°55'4 8.5
2017-Aug-13 21:59N 49°39' W 003°49'4 8.3
2017-Aug-13 21:30N 49°41' W 003°44'4 8.6
2017-Aug-13 21:00N 49°43' W 003°38'4 8.5
2017-Aug-13 20:30N 49°45' W 003°33'7 9.1
2017-Aug-13 19:46N 49°49' W 003°24'3 9.4
2017-Aug-13 19:27N 49°50' W 003°20'4 9.8
2017-Aug-13 19:00N 49°53' W 003°14'510.4
2017-Aug-13 18:30N 49°56' W 003°07'511.0
2017-Aug-13 18:00N 49°58' W 002°60'611.3
2017-Aug-13 17:30N 50°01' W 002°52'911.9
2017-Aug-13 16:46N 50°03' W 002°39'311.9
2017-Aug-13 16:30N 50°04' W 002°34'611.7
2017-Aug-13 16:00N 50°05' W 002°25'711.2
2017-Aug-13 15:25N 50°07' W 002°15'410.5
2017-Aug-13 15:00N 50°08' W 002°09'8 9.6
2017-Aug-13 14:12N 50°10' W 001°57'3 8.7
2017-Aug-13 13:53N 50°11' W 001°53'3 8.1
2017-Aug-13 13:27N 50°12' W 001°48'3 7.5
2017-Aug-13 13:00N 50°13' W 001°43'4 7.1
2017-Aug-13 12:30N 50°14' W 001°37'3 6.7
2017-Aug-13 12:00N 50°15' W 001°33'3 6.4
2017-Aug-13 11:29N 50°16' W 001°28'14 7.1
2017-Aug-13 09:33N 50°20' W 001°07'3810.7
2017-Aug-13 06:01N 50°30' W 000°10'010.9
2017-Aug-13 06:00N 50°30' W 000°10'511.1
2017-Aug-13 05:30N 50°32' W 000°02'511.0
2017-Aug-13 05:00N 50°33' E 000°07'510.7
2017-Aug-13 04:30N 50°35' E 000°15'510.4
2017-Aug-13 03:59N 50°36' E 000°23'510.0
2017-Aug-13 03:30N 50°38' E 000°30'5 9.4
2017-Aug-13 03:00N 50°40' E 000°37'5 9.1
2017-Aug-13 02:30N 50°42' E 000°43'4 8.7
2017-Aug-13 02:00N 50°45' E 000°48'4 8.5
2017-Aug-13 01:30N 50°47' E 000°54'4 8.3
2017-Aug-13 00:59N 50°50' E 000°59'5 8.4
2017-Aug-13 00:25N 50°53' E 001°05'8 9.2
2017-Aug-12 23:36N 50°58' E 001°14'110.2
2017-Aug-12 23:27N 50°59' E 001°16'510.6
2017-Aug-12 23:00N 51°02' E 001°22'611.5
2017-Aug-12 22:30N 51°06' E 001°29'612.1
2017-Aug-12 22:00N 51°09' E 001°36'5 9.5
2017-Aug-12 21:30N 51°14' E 001°40'611.1
2017-Aug-12 21:00N 51°19' E 001°38'510.3
2017-Aug-12 20:30N 51°23' E 001°33'5 9.5
2017-Aug-12 20:00N 51°27' E 001°28'510.3
2017-Aug-12 19:30N 51°28' E 001°20'510.8
2017-Aug-12 19:00N 51°29' E 001°11'510.5
2017-Aug-12 18:30N 51°30' E 001°03'4 0.1
2017-Aug-11 11:57N 51°29' E 000°56'511.0
2017-Aug-11 11:30N 51°30' E 001°04'510.8
2017-Aug-11 11:00N 51°29' E 001°13'611.3
2017-Aug-11 10:30N 51°28' E 001°22'5 9.6
2017-Aug-11 10:00N 51°26' E 001°28'1 1.1
2017-Aug-11 09:31N 51°25' E 001°28'0 0.0
2017-Aug-11 09:00N 51°25' E 001°28'0 0.1
2017-Aug-11 08:30N 51°25' E 001°28'0 0.0
2017-Aug-11 08:01N 51°25' E 001°28'0 0.0
2017-Aug-11 07:31N 51°25' E 001°28'2 3.4
2017-Aug-11 07:00N 51°26' E 001°31'5 9.4
2017-Aug-11 06:30N 51°29' E 001°36'5 9.5
2017-Aug-11 06:01N 51°30' E 001°44'5 9.6
2017-Aug-11 05:30N 51°30' E 001°51'5 9.5
2017-Aug-11 05:01N 51°30' E 001°59'4 8.3
2017-Aug-11 04:30N 51°32' E 002°05'4 8.6
2017-Aug-11 04:00N 51°36' E 002°09'15210.4
2017-Aug-10 13:21N 53°31' E 004°52'411.6
2017-Aug-10 12:59N 53°33' E 004°59'611.2
2017-Aug-10 12:25N 53°35' E 005°08'10410.1
2017-Aug-10 02:10N 54°01' E 007°59'210.6
2017-Aug-10 01:56N 54°01' E 008°03'510.4
2017-Aug-10 01:30N 54°00' E 008°10'610.2
2017-Aug-10 00:57N 53°60' E 008°20'410.0
2017-Aug-10 00:30N 53°59' E 008°27'5 9.1
2017-Aug-10 00:01N 53°58' E 008°35'4 8.1
2017-Aug-09 23:30N 53°56' E 008°40'4 8.2
2017-Aug-09 23:00N 53°52' E 008°44'4 8.7
2017-Aug-09 22:30N 53°50' E 008°51'510.7
2017-Aug-09 22:00N 53°51' E 008°60'511.0
2017-Aug-09 21:30N 53°54' E 009°08'0 0.3
2017-Aug-09 21:00N 53°54' E 009°09'0 0.1
2017-Aug-09 20:30N 53°54' E 009°09'3 5.8
2017-Aug-09 20:00N 53°56' E 009°12'4 8.5
2017-Aug-09 19:30N 53°59' E 009°17'3 6.7
2017-Aug-09 19:00N 54°02' E 009°18'58 5.8
2017-Aug-09 09:01N 54°35' E 010°40'0 9.4
2017-Aug-09 09:00N 54°35' E 010°40'5 9.6
2017-Aug-09 08:30N 54°35' E 010°48'5 9.7
2017-Aug-09 08:00N 54°35' E 010°57'5 9.8
2017-Aug-09 07:30N 54°36' E 011°05'5 9.9
2017-Aug-09 07:00N 54°35' E 011°13'510.5
2017-Aug-09 06:30N 54°33' E 011°22'510.5
2017-Aug-09 06:00N 54°31' E 011°30'510.0
2017-Aug-09 05:30N 54°29' E 011°38'510.1
2017-Aug-09 05:00N 54°27' E 011°46'5 9.8
2017-Aug-09 04:28N 54°27' E 011°55'5 9.6
2017-Aug-09 04:00N 54°26' E 012°03'4 8.9
2017-Aug-09 03:30N 54°28' E 012°10'510.0
2017-Aug-09 03:00N 54°33' E 012°12'510.8
2017-Aug-09 02:30N 54°38' E 012°15'510.3
2017-Aug-09 02:00N 54°41' E 012°22'1110.4
2017-Aug-09 00:54N 54°47' E 012°39'2110.6
2017-Aug-08 22:53N 54°54' E 013°14'410.7
2017-Aug-08 22:30N 54°54' E 013°21'510.8
2017-Aug-08 22:00N 54°52' E 013°30'510.8
2017-Aug-08 21:30N 54°50' E 013°38'510.8
2017-Aug-08 21:00N 54°48' E 013°47'510.0
2017-Aug-08 20:31N 54°44' E 013°51'510.5
2017-Aug-08 20:00N 54°39' E 013°54'510.6
2017-Aug-08 19:30N 54°34' E 013°56'510.7
2017-Aug-08 19:00N 54°28' E 013°59'510.6
2017-Aug-08 18:30N 54°23' E 014°01'510.7
2017-Aug-08 18:00N 54°18' E 014°03'510.8
2017-Aug-08 17:30N 54°13' E 014°07'15 0.8
2017-Aug-08 00:13N 53°60' E 014°17'5 7.5
2017-Aug-07 23:37N 53°55' E 014°17'9 8.1
2017-Aug-07 22:29N 53°47' E 014°22'510.9
2017-Aug-07 22:00N 53°43' E 014°28'510.6
2017-Aug-07 21:30N 53°39' E 014°34'5 9.8
2017-Aug-07 20:58N 53°33' E 014°36'4 8.0
2017-Aug-07 20:30N 53°30' E 014°38'4 8.0
2017-Aug-07 20:00N 53°26' E 014°36'2 3.7
2017-Aug-07 19:29N 53°24' E 014°36'0 0.0
2017-Aug-07 18:59N 53°24' E 014°36'0 0.0
2017-Aug-07 18:29N 53°24' E 014°36'0 0.0
2017-Aug-07 17:59N 53°24' E 014°36'0 0.0
2017-Aug-07 17:29N 53°24' E 014°36'0 0.0
2017-Aug-07 16:59N 53°24' E 014°36'0 0.0
2017-Aug-07 16:29N 53°24' E 014°36'0 0.0
2017-Aug-07 15:59N 53°24' E 014°36'0 0.0
2017-Aug-07 15:29N 53°24' E 014°36'0 0.0
2017-Aug-07 14:59N 53°24' E 014°36'0 0.0
2017-Aug-07 14:29N 53°24' E 014°36'0 0.0
2017-Aug-07 13:59N 53°24' E 014°36'0 0.0
2017-Aug-07 13:26N 53°24' E 014°36'0 0.0
2017-Aug-07 12:59N 53°24' E 014°36'0 0.0
2017-Aug-07 12:29N 53°24' E 014°36'0 0.0
2017-Aug-07 11:59N 53°24' E 014°36'0 0.0
2017-Aug-07 11:29N 53°24' E 014°36'0 0.0
2017-Aug-07 10:59N 53°24' E 014°36'0 0.0
2017-Aug-07 10:29N 53°24' E 014°36'0 0.0
2017-Aug-07 09:59N 53°24' E 014°36'0 0.0
2017-Aug-07 09:29N 53°24' E 014°36'0 0.0
2017-Aug-07 08:59N 53°24' E 014°36'0 0.0
2017-Aug-07 08:26N 53°24' E 014°36'0 0.0
2017-Aug-07 07:44N 53°24' E 014°36'0 0.0
2017-Aug-07 07:29N 53°24' E 014°36'0 0.0
2017-Aug-07 06:59N 53°24' E 014°36'0 0.0
2017-Aug-07 06:20N 53°24' E 014°36'0 0.0
2017-Aug-07 05:56N 53°24' E 014°36'0 0.0
2017-Aug-07 05:26N 53°24' E 014°36'0 0.0
2017-Aug-07 04:56N 53°24' E 014°36'0 0.0
2017-Aug-07 04:29N 53°24' E 014°36'0 0.0
2017-Aug-07 03:56N 53°24' E 014°36'0 0.0
2017-Aug-07 03:29N 53°24' E 014°36'0 0.0
2017-Aug-07 02:59N 53°24' E 014°36'0 0.0
2017-Aug-07 02:29N 53°24' E 014°36'0 0.0
2017-Aug-07 01:59N 53°24' E 014°36'0 0.0
2017-Aug-07 01:29N 53°24' E 014°36'0 0.0
2017-Aug-07 00:59N 53°24' E 014°36'0 0.0
2017-Aug-07 00:29N 53°24' E 014°36'0 0.0
2017-Aug-06 23:59N 53°24' E 014°36'0 0.0
2017-Aug-06 23:29N 53°24' E 014°36'0 0.0
2017-Aug-06 22:59N 53°24' E 014°36'0 0.0
2017-Aug-06 22:29N 53°24' E 014°36'0 0.0
2017-Aug-06 21:56N 53°24' E 014°36'0 0.0
2017-Aug-06 21:29N 53°24' E 014°36'0 0.0
2017-Aug-06 20:59N 53°24' E 014°36'0 0.0
2017-Aug-06 20:29N 53°24' E 014°36'0 0.0
2017-Aug-06 19:59N 53°24' E 014°36'0 0.0
2017-Aug-06 19:29N 53°24' E 014°36'0 0.0
2017-Aug-06 18:59N 53°24' E 014°36'0 0.0
2017-Aug-06 18:29N 53°24' E 014°36'0 0.0
2017-Aug-06 17:56N 53°24' E 014°36'0 0.0
2017-Aug-06 17:29N 53°24' E 014°36'0 0.0
2017-Aug-06 16:56N 53°24' E 014°36'0 0.0
2017-Aug-06 16:29N 53°24' E 014°36'0 0.0
2017-Aug-06 15:59N 53°24' E 014°36'0 0.0
2017-Aug-06 15:29N 53°24' E 014°36'0 0.0
2017-Aug-06 14:59N 53°24' E 014°36'0 0.0
2017-Aug-06 14:29N 53°24' E 014°36'0 0.0
2017-Aug-06 13:59N 53°24' E 014°36'0 0.0
2017-Aug-06 13:29N 53°24' E 014°36'0 0.0
2017-Aug-06 12:59N 53°24' E 014°36'0 0.0
2017-Aug-06 12:29N 53°24' E 014°36'0 0.0
2017-Aug-06 11:59N 53°24' E 014°36'0 0.0
2017-Aug-06 11:29N 53°24' E 014°36'0 0.0
2017-Aug-06 10:59N 53°24' E 014°36'0 0.0
2017-Aug-06 10:29N 53°24' E 014°36'0 0.0
2017-Aug-06 09:59N 53°24' E 014°36'0 0.0
2017-Aug-06 09:29N 53°24' E 014°36'0 0.0
2017-Aug-06 08:59N 53°24' E 014°36'0 0.0
2017-Aug-06 08:26N 53°24' E 014°36'0 0.0
2017-Aug-06 07:59N 53°24' E 014°36'0 0.0
2017-Aug-06 07:26N 53°24' E 014°36'0 0.0
2017-Aug-06 06:59N 53°24' E 014°36'0 0.0
2017-Aug-06 06:29N 53°24' E 014°36'0 0.0
2017-Aug-06 05:59N 53°24' E 014°36'0 0.0
2017-Aug-06 05:29N 53°24' E 014°36'0 0.0
2017-Aug-06 04:59N 53°24' E 014°36'0 0.0
2017-Aug-06 04:29N 53°24' E 014°36'0 0.0
2017-Aug-06 03:59N 53°24' E 014°36'0 0.0
2017-Aug-06 03:26N 53°24' E 014°36'0 0.0
2017-Aug-06 02:59N 53°24' E 014°36'0 0.0
2017-Aug-06 02:29N 53°24' E 014°36'0 0.0
2017-Aug-06 01:59N 53°24' E 014°36'0 0.0
2017-Aug-06 01:29N 53°24' E 014°36'0 0.0
2017-Aug-06 00:59N 53°24' E 014°36'0 0.0
2017-Aug-06 00:29N 53°24' E 014°36'0 0.0
2017-Aug-05 23:59N 53°24' E 014°36'0 0.0
2017-Aug-05 23:29N 53°24' E 014°36'0 0.0
2017-Aug-05 22:59N 53°24' E 014°36'0 0.0
2017-Aug-05 22:29N 53°24' E 014°36'0 0.0
2017-Aug-05 21:56N 53°24' E 014°36'0 0.0
2017-Aug-05 21:26N 53°24' E 014°36'0 0.0
2017-Aug-05 20:59N 53°24' E 014°36'0 0.0
2017-Aug-05 20:29N 53°24' E 014°36'0 0.0
2017-Aug-05 19:59N 53°24' E 014°36'0 0.0
2017-Aug-05 19:29N 53°24' E 014°36'0 0.0
2017-Aug-05 18:59N 53°24' E 014°36'0 0.0
2017-Aug-05 18:29N 53°24' E 014°36'0 0.0
2017-Aug-05 17:59N 53°24' E 014°36'0 0.0
2017-Aug-05 17:29N 53°24' E 014°36'0 0.0
2017-Aug-05 16:56N 53°24' E 014°36'0 0.0
2017-Aug-05 16:26N 53°24' E 014°36'0 0.0
2017-Aug-05 15:59N 53°24' E 014°36'0 0.0
2017-Aug-05 15:23N 53°24' E 014°36'0 0.0
2017-Aug-05 14:59N 53°24' E 014°36'0 0.0
2017-Aug-05 14:29N 53°24' E 014°36'0 0.0
2017-Aug-05 13:56N 53°24' E 014°36'0 0.0
2017-Aug-05 13:29N 53°24' E 014°36'0 0.0
2017-Aug-05 12:59N 53°24' E 014°36'0 0.0
2017-Aug-05 12:29N 53°24' E 014°36'0 0.0
2017-Aug-05 11:56N 53°24' E 014°36'0 0.0
2017-Aug-05 11:29N 53°24' E 014°36'0 0.0
2017-Aug-05 10:59N 53°24' E 014°36'0 0.0
2017-Aug-05 10:29N 53°24' E 014°36'0 0.0
2017-Aug-05 09:56N 53°24' E 014°36'0 0.0
2017-Aug-05 09:26N 53°24' E 014°36'0 0.0
2017-Aug-05 08:59N 53°24' E 014°36'0 0.0
2017-Aug-05 08:23N 53°24' E 014°36'0 0.0
2017-Aug-05 07:56N 53°24' E 014°36'0 0.0
2017-Aug-05 07:29N 53°24' E 014°36'0 0.0
2017-Aug-05 06:56N 53°24' E 014°36'0 0.0
2017-Aug-05 06:29N 53°24' E 014°36'0 0.0
2017-Aug-05 05:59N 53°24' E 014°36'0 0.0
2017-Aug-05 05:26N 53°24' E 014°36'0 0.0
2017-Aug-05 04:56N 53°24' E 014°36'0 0.0
2017-Aug-05 04:26N 53°24' E 014°36'0 0.0
2017-Aug-05 03:59N 53°24' E 014°36'0 0.0
2017-Aug-05 03:29N 53°24' E 014°36'0 0.0
2017-Aug-05 02:59N 53°24' E 014°36'0 0.0
2017-Aug-05 02:26N 53°24' E 014°36'0 0.0
2017-Aug-05 01:56N 53°24' E 014°36'0 0.0
2017-Aug-05 01:26N 53°24' E 014°36'0 0.0
2017-Aug-05 00:59N 53°24' E 014°36'0 0.0
2017-Aug-05 00:26N 53°24' E 014°36'0 0.0
2017-Aug-04 23:59N 53°24' E 014°36'0 0.0
2017-Aug-04 23:29N 53°24' E 014°36'0 0.0
2017-Aug-04 22:59N 53°24' E 014°36'0 0.0
2017-Aug-04 22:26N 53°24' E 014°36'0 0.0
2017-Aug-04 21:56N 53°24' E 014°36'0 0.0
2017-Aug-04 21:26N 53°24' E 014°36'0 0.0
2017-Aug-04 20:59N 53°24' E 014°36'0 0.0
2017-Aug-04 20:26N 53°24' E 014°36'0 0.0
2017-Aug-04 19:56N 53°24' E 014°36'0 0.0
2017-Aug-04 19:26N 53°24' E 014°36'0 0.0
2017-Aug-04 18:50N 53°24' E 014°36'0 0.0
2017-Aug-04 18:29N 53°24' E 014°36'0 0.0
2017-Aug-04 17:59N 53°24' E 014°36'0 0.0
2017-Aug-04 17:23N 53°24' E 014°36'0 0.0
2017-Aug-04 16:59N 53°24' E 014°36'  
Track history (hours):
 
Tides and Currents Weather Stations Pressure Air Temp Water Temp Dewpoint Dewpoint Depression Visibility Wind Speed Wind Dir Waves Ship Positions

Kitty C

Last reported at 2017-Aug-14 16:33 UTC. Time now 2017-Aug-16 21:47 UTC.
Position N 47°27' W 006°34'.

Length 106 m; draft 6.8 m.

Type: Cargo ship. MMSI: 235085464.

Date/timePositionNaut miles runAvg speedWind from/ knotsBaromVisibWave heightAir tempDewpointWater temp
2017-Aug-14 16:33N 47°27' W 006°34'4810.1
2017-Aug-14 11:48N 48°13' W 006°11'50 9.0
2017-Aug-14 06:16N 48°57' W 005°36'3 8.8
2017-Aug-14 05:59N 48°58' W 005°33'12 9.3
2017-Aug-14 04:38N 49°05' W 005°17'1 9.9
2017-Aug-14 04:30N 49°06' W 005°15'710.4
2017-Aug-14 03:50N 49°09' W 005°06'2010.8
2017-Aug-14 01:58N 49°19' W 004°39'510.7
2017-Aug-14 01:29N 49°22' W 004°33'23 9.8
2017-Aug-13 23:05N 49°34' W 004°02'1 8.9
2017-Aug-13 23:00N 49°35' W 004°01'5 8.7
2017-Aug-13 22:29N 49°37' W 003°55'4 8.5
2017-Aug-13 21:59N 49°39' W 003°49'4 8.3
2017-Aug-13 21:30N 49°41' W 003°44'4 8.6
2017-Aug-13 21:00N 49°43' W 003°38'4 8.5
2017-Aug-13 20:30N 49°45' W 003°33'7 9.1
2017-Aug-13 19:46N 49°49' W 003°24'3 9.4
2017-Aug-13 19:27N 49°50' W 003°20'4 9.8
2017-Aug-13 19:00N 49°53' W 003°14'510.4
2017-Aug-13 18:30N 49°56' W 003°07'511.0
2017-Aug-13 18:00N 49°58' W 002°60'611.3
2017-Aug-13 17:30N 50°01' W 002°52'911.9
2017-Aug-13 16:46N 50°03' W 002°39'311.9
2017-Aug-13 16:30N 50°04' W 002°34'611.7
2017-Aug-13 16:00N 50°05' W 002°25'711.2
2017-Aug-13 15:25N 50°07' W 002°15'410.5
2017-Aug-13 15:00N 50°08' W 002°09'8 9.6
2017-Aug-13 14:12N 50°10' W 001°57'3 8.7
2017-Aug-13 13:53N 50°11' W 001°53'3 8.1
2017-Aug-13 13:27N 50°12' W 001°48'3 7.5
2017-Aug-13 13:00N 50°13' W 001°43'4 7.1
2017-Aug-13 12:30N 50°14' W 001°37'3 6.7
2017-Aug-13 12:00N 50°15' W 001°33'3 6.4
2017-Aug-13 11:29N 50°16' W 001°28'14 7.1
2017-Aug-13 09:33N 50°20' W 001°07'3810.7
2017-Aug-13 06:01N 50°30' W 000°10'010.9
2017-Aug-13 06:00N 50°30' W 000°10'511.1
2017-Aug-13 05:30N 50°32' W 000°02'511.0
2017-Aug-13 05:00N 50°33' E 000°07'510.7
2017-Aug-13 04:30N 50°35' E 000°15'510.4
2017-Aug-13 03:59N 50°36' E 000°23'510.0
2017-Aug-13 03:30N 50°38' E 000°30'5 9.4
2017-Aug-13 03:00N 50°40' E 000°37'5 9.1
2017-Aug-13 02:30N 50°42' E 000°43'4 8.7
2017-Aug-13 02:00N 50°45' E 000°48'4 8.5
2017-Aug-13 01:30N 50°47' E 000°54'4 8.3
2017-Aug-13 00:59N 50°50' E 000°59'5 8.4
2017-Aug-13 00:25N 50°53' E 001°05'8 9.2
2017-Aug-12 23:36N 50°58' E 001°14'110.2
2017-Aug-12 23:27N 50°59' E 001°16'510.6
2017-Aug-12 23:00N 51°02' E 001°22'611.5
2017-Aug-12 22:30N 51°06' E 001°29'612.1
2017-Aug-12 22:00N 51°09' E 001°36'5 9.5
2017-Aug-12 21:30N 51°14' E 001°40'611.1
2017-Aug-12 21:00N 51°19' E 001°38'510.3
2017-Aug-12 20:30N 51°23' E 001°33'5 9.5
2017-Aug-12 20:00N 51°27' E 001°28'510.3
2017-Aug-12 19:30N 51°28' E 001°20'510.8
2017-Aug-12 19:00N 51°29' E 001°11'510.5
2017-Aug-12 18:30N 51°30' E 001°03'4 0.1
2017-Aug-11 11:57N 51°29' E 000°56'511.0
2017-Aug-11 11:30N 51°30' E 001°04'510.8
2017-Aug-11 11:00N 51°29' E 001°13'611.3
2017-Aug-11 10:30N 51°28' E 001°22'5 9.6
2017-Aug-11 10:00N 51°26' E 001°28'1 1.1
2017-Aug-11 09:31N 51°25' E 001°28'0 0.0
2017-Aug-11 09:00N 51°25' E 001°28'0 0.1
2017-Aug-11 08:30N 51°25' E 001°28'0 0.0
2017-Aug-11 08:01N 51°25' E 001°28'0 0.0
2017-Aug-11 07:31N 51°25' E 001°28'2 3.4
2017-Aug-11 07:00N 51°26' E 001°31'5 9.4
2017-Aug-11 06:30N 51°29' E 001°36'5 9.5
2017-Aug-11 06:01N 51°30' E 001°44'5 9.6
2017-Aug-11 05:30N 51°30' E 001°51'5 9.5
2017-Aug-11 05:01N 51°30' E 001°59'4 8.3
2017-Aug-11 04:30N 51°32' E 002°05'4 8.6
2017-Aug-11 04:00N 51°36' E 002°09'15210.4
2017-Aug-10 13:21N 53°31' E 004°52'411.6
2017-Aug-10 12:59N 53°33' E 004°59'611.2
2017-Aug-10 12:25N 53°35' E 005°08'10410.1
2017-Aug-10 02:10N 54°01' E 007°59'210.6
2017-Aug-10 01:56N 54°01' E 008°03'510.4
2017-Aug-10 01:30N 54°00' E 008°10'610.2
2017-Aug-10 00:57N 53°60' E 008°20'410.0
2017-Aug-10 00:30N 53°59' E 008°27'5 9.1
2017-Aug-10 00:01N 53°58' E 008°35'4 8.1
2017-Aug-09 23:30N 53°56' E 008°40'4 8.2
2017-Aug-09 23:00N 53°52' E 008°44'4 8.7
2017-Aug-09 22:30N 53°50' E 008°51'510.7
2017-Aug-09 22:00N 53°51' E 008°60'511.0
2017-Aug-09 21:30N 53°54' E 009°08'0 0.3
2017-Aug-09 21:00N 53°54' E 009°09'0 0.1
2017-Aug-09 20:30N 53°54' E 009°09'3 5.8
2017-Aug-09 20:00N 53°56' E 009°12'4 8.5
2017-Aug-09 19:30N 53°59' E 009°17'3 6.7
2017-Aug-09 19:00N 54°02' E 009°18'58 5.8
2017-Aug-09 09:01N 54°35' E 010°40'0 9.4
2017-Aug-09 09:00N 54°35' E 010°40'5 9.6
2017-Aug-09 08:30N 54°35' E 010°48'5 9.7
2017-Aug-09 08:00N 54°35' E 010°57'5 9.8
2017-Aug-09 07:30N 54°36' E 011°05'5 9.9
2017-Aug-09 07:00N 54°35' E 011°13'510.5
2017-Aug-09 06:30N 54°33' E 011°22'510.5
2017-Aug-09 06:00N 54°31' E 011°30'510.0
2017-Aug-09 05:30N 54°29' E 011°38'510.1
2017-Aug-09 05:00N 54°27' E 011°46'5 9.8
2017-Aug-09 04:28N 54°27' E 011°55'5 9.6
2017-Aug-09 04:00N 54°26' E 012°03'4 8.9
2017-Aug-09 03:30N 54°28' E 012°10'510.0
2017-Aug-09 03:00N 54°33' E 012°12'510.8
2017-Aug-09 02:30N 54°38' E 012°15'510.3
2017-Aug-09 02:00N 54°41' E 012°22'1110.4
2017-Aug-09 00:54N 54°47' E 012°39'2110.6
2017-Aug-08 22:53N 54°54' E 013°14'410.7
2017-Aug-08 22:30N 54°54' E 013°21'510.8
2017-Aug-08 22:00N 54°52' E 013°30'510.8
2017-Aug-08 21:30N 54°50' E 013°38'510.8
2017-Aug-08 21:00N 54°48' E 013°47'510.0
2017-Aug-08 20:31N 54°44' E 013°51'510.5
2017-Aug-08 20:00N 54°39' E 013°54'510.6
2017-Aug-08 19:30N 54°34' E 013°56'510.7
2017-Aug-08 19:00N 54°28' E 013°59'510.6
2017-Aug-08 18:30N 54°23' E 014°01'510.7
2017-Aug-08 18:00N 54°18' E 014°03'510.8
2017-Aug-08 17:30N 54°13' E 014°07'15 0.8
2017-Aug-08 00:13N 53°60' E 014°17'5 7.5
2017-Aug-07 23:37N 53°55' E 014°17'9 8.1
2017-Aug-07 22:29N 53°47' E 014°22'510.9
2017-Aug-07 22:00N 53°43' E 014°28'510.6
2017-Aug-07 21:30N 53°39' E 014°34'5 9.8
2017-Aug-07 20:58N 53°33' E 014°36'4 8.0
2017-Aug-07 20:30N 53°30' E 014°38'4 8.0
2017-Aug-07 20:00N 53°26' E 014°36'2 3.7
2017-Aug-07 19:29N 53°24' E 014°36'0 0.0
2017-Aug-07 18:59N 53°24' E 014°36'0 0.0
2017-Aug-07 18:29N 53°24' E 014°36'0 0.0
2017-Aug-07 17:59N 53°24' E 014°36'0 0.0
2017-Aug-07 17:29N 53°24' E 014°36'0 0.0
2017-Aug-07 16:59N 53°24' E 014°36'0 0.0
2017-Aug-07 16:29N 53°24' E 014°36'0 0.0
2017-Aug-07 15:59N 53°24' E 014°36'0 0.0
2017-Aug-07 15:29N 53°24' E 014°36'0 0.0
2017-Aug-07 14:59N 53°24' E 014°36'0 0.0
2017-Aug-07 14:29N 53°24' E 014°36'0 0.0
2017-Aug-07 13:59N 53°24' E 014°36'0 0.0
2017-Aug-07 13:26N 53°24' E 014°36'0 0.0
2017-Aug-07 12:59N 53°24' E 014°36'0 0.0
2017-Aug-07 12:29N 53°24' E 014°36'0 0.0
2017-Aug-07 11:59N 53°24' E 014°36'0 0.0
2017-Aug-07 11:29N 53°24' E 014°36'0 0.0
2017-Aug-07 10:59N 53°24' E 014°36'0 0.0
2017-Aug-07 10:29N 53°24' E 014°36'0 0.0
2017-Aug-07 09:59N 53°24' E 014°36'0 0.0
2017-Aug-07 09:29N 53°24' E 014°36'0 0.0
2017-Aug-07 08:59N 53°24' E 014°36'0 0.0
2017-Aug-07 08:26N 53°24' E 014°36'0 0.0
2017-Aug-07 07:44N 53°24' E 014°36'0 0.0
2017-Aug-07 07:29N 53°24' E 014°36'0 0.0
2017-Aug-07 06:59N 53°24' E 014°36'0 0.0
2017-Aug-07 06:20N 53°24' E 014°36'0 0.0
2017-Aug-07 05:56N 53°24' E 014°36'0 0.0
2017-Aug-07 05:26N 53°24' E 014°36'0 0.0
2017-Aug-07 04:56N 53°24' E 014°36'0 0.0
2017-Aug-07 04:29N 53°24' E 014°36'0 0.0
2017-Aug-07 03:56N 53°24' E 014°36'0 0.0
2017-Aug-07 03:29N 53°24' E 014°36'0 0.0
2017-Aug-07 02:59N 53°24' E 014°36'0 0.0
2017-Aug-07 02:29N 53°24' E 014°36'0 0.0
2017-Aug-07 01:59N 53°24' E 014°36'0 0.0
2017-Aug-07 01:29N 53°24' E 014°36'0 0.0
2017-Aug-07 00:59N 53°24' E 014°36'0 0.0
2017-Aug-07 00:29N 53°24' E 014°36'0 0.0
2017-Aug-06 23:59N 53°24' E 014°36'0 0.0
2017-Aug-06 23:29N 53°24' E 014°36'0 0.0
2017-Aug-06 22:59N 53°24' E 014°36'0 0.0
2017-Aug-06 22:29N 53°24' E 014°36'0 0.0
2017-Aug-06 21:56N 53°24' E 014°36'0 0.0
2017-Aug-06 21:29N 53°24' E 014°36'0 0.0
2017-Aug-06 20:59N 53°24' E 014°36'0 0.0
2017-Aug-06 20:29N 53°24' E 014°36'0 0.0
2017-Aug-06 19:59N 53°24' E 014°36'0 0.0
2017-Aug-06 19:29N 53°24' E 014°36'0 0.0
2017-Aug-06 18:59N 53°24' E 014°36'0 0.0
2017-Aug-06 18:29N 53°24' E 014°36'0 0.0
2017-Aug-06 17:56N 53°24' E 014°36'0 0.0
2017-Aug-06 17:29N 53°24' E 014°36'0 0.0
2017-Aug-06 16:56N 53°24' E 014°36'0 0.0
2017-Aug-06 16:29N 53°24' E 014°36'0 0.0
2017-Aug-06 15:59N 53°24' E 014°36'0 0.0
2017-Aug-06 15:29N 53°24' E 014°36'0 0.0
2017-Aug-06 14:59N 53°24' E 014°36'0 0.0
2017-Aug-06 14:29N 53°24' E 014°36'0 0.0
2017-Aug-06 13:59N 53°24' E 014°36'0 0.0
2017-Aug-06 13:29N 53°24' E 014°36'0 0.0
2017-Aug-06 12:59N 53°24' E 014°36'0 0.0
2017-Aug-06 12:29N 53°24' E 014°36'0 0.0
2017-Aug-06 11:59N 53°24' E 014°36'0 0.0
2017-Aug-06 11:29N 53°24' E 014°36'0 0.0
2017-Aug-06 10:59N 53°24' E 014°36'0 0.0
2017-Aug-06 10:29N 53°24' E 014°36'0 0.0
2017-Aug-06 09:59N 53°24' E 014°36'0 0.0
2017-Aug-06 09:29N 53°24' E 014°36'0 0.0
2017-Aug-06 08:59N 53°24' E 014°36'0 0.0
2017-Aug-06 08:26N 53°24' E 014°36'0 0.0
2017-Aug-06 07:59N 53°24' E 014°36'0 0.0
2017-Aug-06 07:26N 53°24' E 014°36'0 0.0
2017-Aug-06 06:59N 53°24' E 014°36'0 0.0
2017-Aug-06 06:29N 53°24' E 014°36'0 0.0
2017-Aug-06 05:59N 53°24' E 014°36'0 0.0
2017-Aug-06 05:29N 53°24' E 014°36'0 0.0
2017-Aug-06 04:59N 53°24' E 014°36'0 0.0
2017-Aug-06 04:29N 53°24' E 014°36'0 0.0
2017-Aug-06 03:59N 53°24' E 014°36'0 0.0
2017-Aug-06 03:26N 53°24' E 014°36'0 0.0
2017-Aug-06 02:59N 53°24' E 014°36'0 0.0
2017-Aug-06 02:29N 53°24' E 014°36'0 0.0
2017-Aug-06 01:59N 53°24' E 014°36'0 0.0
2017-Aug-06 01:29N 53°24' E 014°36'0 0.0
2017-Aug-06 00:59N 53°24' E 014°36'0 0.0
2017-Aug-06 00:29N 53°24' E 014°36'0 0.0
2017-Aug-05 23:59N 53°24' E 014°36'0 0.0
2017-Aug-05 23:29N 53°24' E 014°36'0 0.0
2017-Aug-05 22:59N 53°24' E 014°36'0 0.0
2017-Aug-05 22:29N 53°24' E 014°36'0 0.0
2017-Aug-05 21:56N 53°24' E 014°36'0 0.0
2017-Aug-05 21:26N 53°24' E 014°36'0 0.0
2017-Aug-05 20:59N 53°24' E 014°36'0 0.0
2017-Aug-05 20:29N 53°24' E 014°36'0 0.0
2017-Aug-05 19:59N 53°24' E 014°36'0 0.0
2017-Aug-05 19:29N 53°24' E 014°36'0 0.0
2017-Aug-05 18:59N 53°24' E 014°36'0 0.0
2017-Aug-05 18:29N 53°24' E 014°36'0 0.0
2017-Aug-05 17:59N 53°24' E 014°36'0 0.0
2017-Aug-05 17:29N 53°24' E 014°36'0 0.0
2017-Aug-05 16:56N 53°24' E 014°36'0 0.0
2017-Aug-05 16:26N 53°24' E 014°36'0 0.0
2017-Aug-05 15:59N 53°24' E 014°36'0 0.0
2017-Aug-05 15:23N 53°24' E 014°36'0 0.0
2017-Aug-05 14:59N 53°24' E 014°36'0 0.0
2017-Aug-05 14:29N 53°24' E 014°36'0 0.0
2017-Aug-05 13:56N 53°24' E 014°36'0 0.0
2017-Aug-05 13:29N 53°24' E 014°36'0 0.0
2017-Aug-05 12:59N 53°24' E 014°36'0 0.0
2017-Aug-05 12:29N 53°24' E 014°36'0 0.0
2017-Aug-05 11:56N 53°24' E 014°36'0 0.0
2017-Aug-05 11:29N 53°24' E 014°36'0 0.0
2017-Aug-05 10:59N 53°24' E 014°36'0 0.0
2017-Aug-05 10:29N 53°24' E 014°36'0 0.0
2017-Aug-05 09:56N 53°24' E 014°36'0 0.0
2017-Aug-05 09:26N 53°24' E 014°36'0 0.0
2017-Aug-05 08:59N 53°24' E 014°36'0 0.0
2017-Aug-05 08:23N 53°24' E 014°36'0 0.0
2017-Aug-05 07:56N 53°24' E 014°36'0 0.0
2017-Aug-05 07:29N 53°24' E 014°36'0 0.0
2017-Aug-05 06:56N 53°24' E 014°36'0 0.0
2017-Aug-05 06:29N 53°24' E 014°36'0 0.0
2017-Aug-05 05:59N 53°24' E 014°36'0 0.0
2017-Aug-05 05:26N 53°24' E 014°36'0 0.0
2017-Aug-05 04:56N 53°24' E 014°36'0 0.0
2017-Aug-05 04:26N 53°24' E 014°36'0 0.0
2017-Aug-05 03:59N 53°24' E 014°36'0 0.0
2017-Aug-05 03:29N 53°24' E 014°36'0 0.0
2017-Aug-05 02:59N 53°24' E 014°36'0 0.0
2017-Aug-05 02:26N 53°24' E 014°36'0 0.0
2017-Aug-05 01:56N 53°24' E 014°36'0 0.0
2017-Aug-05 01:26N 53°24' E 014°36'0 0.0
2017-Aug-05 00:59N 53°24' E 014°36'0 0.0
2017-Aug-05 00:26N 53°24' E 014°36'0 0.0
2017-Aug-04 23:59N 53°24' E 014°36'0 0.0
2017-Aug-04 23:29N 53°24' E 014°36'0 0.0
2017-Aug-04 22:59N 53°24' E 014°36'0 0.0
2017-Aug-04 22:26N 53°24' E 014°36'0 0.0
2017-Aug-04 21:56N 53°24' E 014°36'0 0.0
2017-Aug-04 21:26N 53°24' E 014°36'0 0.0
2017-Aug-04 20:59N 53°24' E 014°36'0 0.0
2017-Aug-04 20:26N 53°24' E 014°36'0 0.0
2017-Aug-04 19:56N 53°24' E 014°36'0 0.0
2017-Aug-04 19:26N 53°24' E 014°36'0 0.0
2017-Aug-04 18:50N 53°24' E 014°36'0 0.0
2017-Aug-04 18:29N 53°24' E 014°36'0 0.0
2017-Aug-04 17:59N 53°24' E 014°36'0 0.0
2017-Aug-04 17:23N 53°24' E 014°36'0 0.0
2017-Aug-04 16:59N 53°24' E 014°36'  

Dump ship's entire track history